Time;durP1;ratioP1;P1;durP2;ratioP2;P2;SDS_P1;SDS_P2;PMS_P1;PMS_P2;Temp;Humidity;BMP_temperature;BMP_pressure;BME280_temperature;BME280_humidity;BME280_pressure;Samples;Min_cycle;Max_cycle;Signal;HPM_P1;HPM_P2
2022/01/03 00:00:14;;;;;;;31.17;3.63;;;9.70;84.50;;;;;;5090307;28;20056;-78
2022/01/03 00:02:42;;;;;;;26.20;3.20;;;9.80;84.40;;;;;;5095988;28;20108;-77
2022/01/03 00:05:10;;;;;;;23.75;2.55;;;9.70;84.70;;;;;;5088545;28;20048;-78
2022/01/03 00:07:40;;;;;;;20.00;2.95;;;9.70;84.40;;;;;;5083895;28;20109;-78
2022/01/03 00:10:13;;;;;;;25.20;3.05;;;9.80;84.40;;;;;;5103645;28;20041;-78
2022/01/03 00:12:41;;;;;;;28.00;3.20;;;9.70;85.00;;;;;;5095243;28;20047;-78
2022/01/03 00:15:10;;;;;;;23.40;3.17;;;9.70;84.70;;;;;;5100401;28;20047;-78
2022/01/03 00:17:40;;;;;;;21.45;3.78;;;9.70;84.80;;;;;;5101190;28;20340;-78
2022/01/03 00:20:09;;;;;;;30.90;3.88;;;9.60;84.90;;;;;;5098672;27;20036;-79
2022/01/03 00:22:58;;;;;;;23.73;3.90;;;9.60;85.20;;;;;;5099309;28;20092;-78
2022/01/03 00:25:26;;;;;;;28.05;3.83;;;9.60;85.10;;;;;;5090982;28;20053;-78
2022/01/03 00:28:12;;;;;;;23.85;3.63;;;9.60;84.90;;;;;;5101536;28;20045;-78
2022/01/03 00:30:39;;;;;;;32.72;4.18;;;9.60;85.10;;;;;;5101946;28;20070;-79
2022/01/03 00:33:06;;;;;;;28.40;4.20;;;9.60;85.20;;;;;;5100139;28;20060;-78
2022/01/03 00:35:41;;;;;;;30.55;4.28;;;9.50;85.30;;;;;;5099572;28;20037;-77
2022/01/03 00:38:12;;;;;;;21.03;3.17;;;9.50;84.90;;;;;;5102192;28;20040;-77
2022/01/03 00:40:42;;;;;;;28.65;3.80;;;9.50;85.40;;;;;;5097498;28;20072;-78
2022/01/03 00:43:08;;;;;;;25.50;3.63;;;9.50;84.80;;;;;;5109724;27;20058;-78
2022/01/03 00:45:37;;;;;;;31.70;3.95;;;9.50;84.70;;;;;;5085461;28;20072;-78
2022/01/03 00:48:11;;;;;;;29.65;3.78;;;9.50;85.00;;;;;;5101840;28;20075;-78
2022/01/03 00:50:40;;;;;;;24.77;3.35;;;9.40;85.30;;;;;;5100471;28;20140;-78
2022/01/03 00:53:07;;;;;;;41.08;4.53;;;9.30;85.50;;;;;;5086543;28;20041;-78
2022/01/03 00:55:38;;;;;;;35.15;3.92;;;9.30;85.60;;;;;;5104997;28;20041;-78
2022/01/03 00:58:18;;;;;;;40.05;5.82;;;9.30;85.80;;;;;;5090107;27;20055;-79
2022/01/03 01:00:49;;;;;;;31.38;4.30;;;9.20;86.00;;;;;;5086184;28;20041;-78
2022/01/03 01:03:32;;;;;;;27.65;3.42;;;9.30;85.90;;;;;;5096116;28;20049;-78
2022/01/03 01:06:03;;;;;;;41.70;4.43;;;9.30;85.90;;;;;;5094863;28;20036;-78
2022/01/03 01:08:34;;;;;;;38.55;5.03;;;9.30;85.90;;;;;;5101028;28;20736;-79
2022/01/03 01:11:05;;;;;;;33.72;4.57;;;9.30;85.90;;;;;;5093873;28;20057;-78
2022/01/03 01:13:35;;;;;;;36.17;4.97;;;9.20;85.90;;;;;;5101144;28;20147;-78
2022/01/03 01:16:06;;;;;;;40.25;4.65;;;9.20;85.90;;;;;;5099781;28;20033;-79
2022/01/03 01:18:36;;;;;;;34.30;4.53;;;9.20;85.70;;;;;;5097724;28;20041;-77
2022/01/03 01:21:04;;;;;;;29.23;5.40;;;9.20;85.40;;;;;;5086557;28;20530;-78
2022/01/03 01:23:32;;;;;;;38.05;5.03;;;9.20;85.50;;;;;;5096062;28;20044;-78
2022/01/03 01:27:47;;;;;;;34.55;4.50;;;9.20;85.50;;;;;;5107175;28;20100;-78
2022/01/03 01:28:49;;;;;;;34.00;4.50;;;9.10;85.70;;;;;;5105150;28;20097;-78
2022/01/03 01:31:23;;;;;;;31.65;4.07;;;9.10;85.80;;;;;;5089170;28;20033;-78
2022/01/03 01:33:53;;;;;;;40.90;5.18;;;9.00;85.80;;;;;;5099610;28;20064;-78
2022/01/03 01:36:25;;;;;;;41.50;4.70;;;9.00;85.70;;;;;;5094226;28;20055;-78
2022/01/03 01:38:54;;;;;;;36.40;4.60;;;8.90;85.70;;;;;;5097124;28;20108;-79
2022/01/03 01:41:22;;;;;;;31.05;4.45;;;9.00;85.60;;;;;;5097429;28;20045;-78
2022/01/03 01:43:49;;;;;;;34.85;3.78;;;9.00;85.70;;;;;;5098509;28;20041;-79
2022/01/03 01:46:21;;;;;;;31.17;4.63;;;8.90;85.70;;;;;;5101235;28;20109;-78
2022/01/03 01:48:49;;;;;;;43.55;5.63;;;8.90;85.60;;;;;;5102370;28;20039;-78
2022/01/03 01:51:18;;;;;;;39.85;4.30;;;8.90;85.60;;;;;;5104824;27;20096;-79
2022/01/03 01:54:05;;;;;;;30.77;3.90;;;8.90;85.60;;;;;;5098580;28;20041;-79
2022/01/03 01:56:58;;;;;;;47.05;5.45;;;8.90;85.90;;;;;;5100254;28;20060;-80
2022/01/03 01:59:44;;;;;;;33.10;4.50;;;8.80;86.10;;;;;;5100547;27;20053;-78
2022/01/03 02:02:16;;;;;;;30.98;4.18;;;8.90;86.10;;;;;;5101009;27;20041;-78
2022/01/03 02:04:46;;;;;;;34.38;5.50;;;8.80;86.20;;;;;;5097271;28;20056;-79
2022/01/03 02:07:23;;;;;;;27.13;3.97;;;8.80;86.30;;;;;;5101674;27;20092;-78
2022/01/03 02:10:03;;;;;;;29.42;3.75;;;8.70;86.50;;;;;;5098874;27;20089;-78
2022/01/03 02:12:37;;;;;;;43.20;5.55;;;8.70;86.60;;;;;;5106124;27;20051;-79
2022/01/03 02:15:11;;;;;;;31.63;4.60;;;8.70;86.80;;;;;;5096678;28;20060;-79
2022/01/03 02:17:44;;;;;;;43.55;4.10;;;8.70;86.80;;;;;;5097799;27;20053;-78
2022/01/03 02:20:16;;;;;;;42.53;4.55;;;8.70;86.80;;;;;;5095374;28;20080;-79
2022/01/03 02:22:44;;;;;;;30.10;4.22;;;8.60;87.10;;;;;;5095674;28;20035;-78
2022/01/03 02:25:16;;;;;;;35.08;4.65;;;8.60;87.30;;;;;;5092363;28;20045;-78
2022/01/03 02:27:43;;;;;;;32.65;4.78;;;8.70;87.20;;;;;;5100276;27;20060;-79
2022/01/03 02:30:14;;;;;;;36.97;4.82;;;8.70;87.30;;;;;;5096100;28;20039;-78
2022/01/03 02:32:42;;;;;;;37.67;4.80;;;8.70;87.10;;;;;;5089158;28;20059;-79
2022/01/03 02:35:10;;;;;;;37.10;3.67;;;8.80;87.30;;;;;;5097052;28;20052;-78
2022/01/03 02:37:40;;;;;;;38.00;5.25;;;8.80;87.10;;;;;;5082586;28;20077;-78
2022/01/03 02:40:12;;;;;;;38.67;4.75;;;8.90;87.20;;;;;;5102745;27;20028;-79
2022/01/03 02:42:43;;;;;;;40.70;4.55;;;8.90;87.20;;;;;;5103889;28;20145;-78
2022/01/03 02:45:14;;;;;;;33.90;4.47;;;8.80;87.40;;;;;;5101762;28;20051;-79
2022/01/03 02:47:45;;;;;;;36.03;4.63;;;8.90;87.20;;;;;;5109367;27;20060;-78
2022/01/03 02:50:13;;;;;;;35.90;4.75;;;9.00;87.20;;;;;;5102678;27;20059;-79
2022/01/03 02:52:43;;;;;;;34.75;5.18;;;9.00;86.90;;;;;;5106605;27;20099;-79
2022/01/03 02:55:13;;;;;;;35.70;4.82;;;9.00;86.80;;;;;;5106996;27;20033;-78
2022/01/03 02:57:43;;;;;;;36.42;4.63;;;9.00;86.80;;;;;;5109025;27;20200;-78
2022/01/03 03:00:16;;;;;;;41.33;5.70;;;8.90;86.90;;;;;;5102577;27;20089;-78
2022/01/03 03:02:43;;;;;;;;;;;8.90;86.90;;;;;;5106719;27;20114;-78
2022/01/03 03:05:11;;;;;;;36.10;4.07;;;8.90;87.00;;;;;;5109840;27;19956;-78
2022/01/03 03:07:38;;;;;;;34.10;4.05;;;8.90;86.90;;;;;;5100660;27;20052;-78
2022/01/03 03:10:09;;;;;;;34.17;4.35;;;9.00;87.00;;;;;;5088737;28;20029;-79
2022/01/03 03:12:36;;;;;;;28.70;4.75;;;8.90;87.20;;;;;;5108707;27;20029;-78
2022/01/03 03:15:04;;;;;;;35.67;5.10;;;9.00;86.70;;;;;;5109993;27;20100;-78
2022/01/03 03:17:31;;;;;;;41.85;4.53;;;9.00;86.70;;;;;;5107372;27;20048;-77
2022/01/03 03:20:22;;;;;;;42.30;5.60;;;9.00;86.90;;;;;;5108891;27;20103;-79
2022/01/03 03:22:51;;;;;;;38.55;5.45;;;9.00;87.10;;;;;;5094301;27;20139;-78
2022/01/03 03:25:24;;;;;;;28.98;3.72;;;9.00;86.70;;;;;;5104645;27;20105;-78
2022/01/03 03:27:54;;;;;;;39.35;5.53;;;8.90;86.80;;;;;;5106012;27;20059;-78
2022/01/03 03:30:30;;;;;;;44.70;5.10;;;8.90;86.80;;;;;;5107717;27;20109;-77
2022/01/03 03:33:01;;;;;;;45.10;5.10;;;8.90;86.60;;;;;;5108188;28;20097;-78
2022/01/03 03:35:28;;;;;;;41.78;5.60;;;8.90;86.60;;;;;;5097613;28;20037;-78
2022/01/03 03:37:55;;;;;;;34.85;4.80;;;8.90;86.80;;;;;;5101819;27;20037;-78
2022/01/03 03:40:22;;;;;;;39.63;4.90;;;8.80;87.00;;;;;;5099840;28;20093;-78
2022/01/03 03:42:48;;;;;;;42.17;5.13;;;8.80;87.20;;;;;;5103721;27;20052;-78
2022/01/03 03:45:15;;;;;;;33.67;4.63;;;8.80;87.40;;;;;;5098950;27;20044;-77
2022/01/03 03:47:42;;;;;;;38.88;4.93;;;8.90;87.20;;;;;;5097486;28;20037;-77
2022/01/03 03:50:10;;;;;;;38.30;4.75;;;9.00;87.00;;;;;;5095225;28;20482;-78
2022/01/03 03:52:39;;;;;;;45.90;5.78;;;9.00;87.20;;;;;;5101436;28;20049;-78
2022/01/03 03:55:07;;;;;;;46.50;5.78;;;9.00;86.90;;;;;;5100484;28;20041;-78
2022/01/03 03:57:34;;;;;;;33.92;4.25;;;9.00;86.90;;;;;;5105325;27;20048;-77
2022/01/03 04:00:01;;;;;;;38.60;5.20;;;9.10;86.80;;;;;;5099860;28;20085;-77
2022/01/03 04:02:27;;;;;;;45.28;5.35;;;9.10;86.70;;;;;;5088614;28;20053;-78
2022/01/03 04:04:54;;;;;;;35.83;5.22;;;9.20;86.70;;;;;;5101530;28;20071;-77
2022/01/03 04:07:21;;;;;;;46.30;5.20;;;9.20;86.30;;;;;;5105736;28;20093;-78
2022/01/03 04:09:48;;;;;;;38.88;5.60;;;9.20;86.60;;;;;;5104094;28;20589;-77
2022/01/03 04:12:14;;;;;;;33.85;4.05;;;9.20;86.50;;;;;;5096823;27;20092;-78
2022/01/03 04:14:41;;;;;;;40.60;4.82;;;9.30;86.50;;;;;;5086305;27;20071;-78
2022/01/03 04:17:10;;;;;;;39.95;6.38;;;9.20;86.80;;;;;;5100931;27;20053;-78
2022/01/03 04:19:39;;;;;;;42.53;5.32;;;9.30;86.20;;;;;;5106407;27;20028;-78
2022/01/03 04:22:06;;;;;;;35.47;4.97;;;9.40;86.40;;;;;;5109981;27;20131;-78
2022/01/03 04:24:32;;;;;;;46.03;4.95;;;9.40;86.30;;;;;;5104748;27;20025;-77
2022/01/03 04:27:00;;;;;;;42.38;6.10;;;9.40;86.10;;;;;;5102552;27;20037;-78
2022/01/03 04:29:26;;;;;;;49.55;6.18;;;9.40;86.20;;;;;;5110362;27;20090;-78
2022/01/03 04:31:53;;;;;;;49.08;5.55;;;9.40;86.10;;;;;;5105512;28;20136;-78
2022/01/03 04:34:20;;;;;;;43.05;4.32;;;9.50;86.10;;;;;;5107005;27;20041;-78
2022/01/03 04:36:47;;;;;;;37.58;4.97;;;9.40;85.80;;;;;;5108970;27;20048;-77
2022/01/03 04:39:14;;;;;;;42.63;5.30;;;9.40;85.80;;;;;;5108866;28;20093;-78
2022/01/03 04:41:41;;;;;;;38.55;7.55;;;9.50;85.50;;;;;;5111462;27;20036;-78
2022/01/03 04:44:10;;;;;;;32.35;4.47;;;9.40;85.90;;;;;;5105556;28;20045;-77
2022/01/03 04:46:39;;;;;;;39.17;4.88;;;9.40;85.80;;;;;;5096003;28;20052;-78
2022/01/03 04:49:07;;;;;;;40.65;4.70;;;9.40;85.60;;;;;;5105830;27;20116;-78
2022/01/03 04:51:37;;;;;;;53.33;6.25;;;9.40;85.60;;;;;;5102319;27;20033;-78
2022/01/03 04:54:05;;;;;;;46.65;5.70;;;9.40;85.50;;;;;;5108786;27;20435;-77
2022/01/03 04:56:33;;;;;;;36.28;4.72;;;9.40;85.50;;;;;;5103409;27;20044;-78
2022/01/03 04:59:00;;;;;;;41.65;5.35;;;9.40;85.50;;;;;;5104625;27;20092;-78
2022/01/03 05:01:27;;;;;;;37.20;4.95;;;9.40;85.40;;;;;;5105606;27;20878;-78
2022/01/03 05:03:54;;;;;;;43.72;5.40;;;9.40;85.30;;;;;;5104126;27;20037;-77
2022/01/03 05:06:21;;;;;;;34.08;5.45;;;9.50;85.00;;;;;;5103280;28;20037;-77
2022/01/03 05:08:48;;;;;;;45.58;5.88;;;9.50;85.20;;;;;;5098827;27;20036;-77
2022/01/03 05:11:14;;;;;;;44.83;5.10;;;9.40;85.50;;;;;;5100689;27;20067;-77
2022/01/03 05:13:44;;;;;;;42.72;5.07;;;9.50;85.40;;;;;;5108400;27;20079;-77
2022/01/03 05:16:11;;;;;;;46.50;5.25;;;9.40;85.80;;;;;;5104222;28;20041;-77
2022/01/03 05:18:40;;;;;;;29.20;4.85;;;9.50;85.50;;;;;;5082591;28;20076;-77
2022/01/03 05:21:07;;;;;;;42.17;5.63;;;9.40;85.60;;;;;;5100145;27;20040;-77
2022/01/03 05:23:34;;;;;;;39.45;5.03;;;9.40;85.50;;;;;;5106721;27;20128;-78
2022/01/03 05:26:00;;;;;;;37.90;5.15;;;9.40;85.50;;;;;;5106932;27;20092;-77
2022/01/03 05:28:27;;;;;;;39.65;5.32;;;9.40;85.40;;;;;;5099489;27;20647;-77
2022/01/03 05:30:54;;;;;;;41.65;4.90;;;9.40;85.80;;;;;;5100909;28;20051;-78
2022/01/03 05:33:21;;;;;;;32.80;4.80;;;9.40;85.70;;;;;;5099108;28;20045;-77
2022/01/03 05:35:47;;;;;;;33.72;5.22;;;9.40;85.60;;;;;;5104377;28;20029;-77
2022/01/03 05:38:14;;;;;;;33.17;4.25;;;9.40;85.00;;;;;;5092078;28;20031;-77
2022/01/03 05:40:41;;;;;;;41.90;4.65;;;9.40;85.60;;;;;;5100906;27;20041;-77
2022/01/03 05:43:10;;;;;;;42.20;5.07;;;9.40;85.50;;;;;;5103949;28;20036;-77
2022/01/03 05:45:39;;;;;;;34.22;4.80;;;9.30;85.80;;;;;;5097249;27;20052;-77
2022/01/03 05:48:06;;;;;;;38.65;5.22;;;9.30;85.60;;;;;;5102086;27;20048;-77
2022/01/03 05:50:33;;;;;;;35.60;5.10;;;9.30;85.50;;;;;;5108748;27;20025;-77
2022/01/03 05:52:59;;;;;;;29.63;4.10;;;9.20;85.60;;;;;;5096218;27;20059;-78
2022/01/03 05:55:26;;;;;;;37.35;4.88;;;9.20;85.70;;;;;;5096110;28;20041;-77
2022/01/03 05:57:53;;;;;;;32.55;4.18;;;9.20;86.00;;;;;;5098482;27;20233;-78
2022/01/03 06:00:25;;;;;;;39.58;5.15;;;9.20;86.10;;;;;;5098753;27;20084;-77
2022/01/03 06:02:57;;;;;;;32.88;4.43;;;9.20;86.00;;;;;;5101677;27;20029;-78
2022/01/03 06:08:17;;;;;;;42.20;5.03;;;9.10;86.30;;;;;;5082637;27;20025;-78
2022/01/03 06:10:44;;;;;;;41.92;4.47;;;9.10;86.40;;;;;;5097791;28;20071;-77
2022/01/03 06:13:14;;;;;;;30.73;3.83;;;9.20;86.30;;;;;;5094413;28;20037;-77
2022/01/03 06:15:42;;;;;;;42.63;4.40;;;9.20;86.20;;;;;;5093352;28;20032;-77
2022/01/03 06:18:14;;;;;;;36.22;4.53;;;9.30;85.90;;;;;;5093270;27;20044;-77
2022/01/03 06:20:43;;;;;;;35.13;4.57;;;9.30;85.80;;;;;;5100809;27;20056;-77
2022/01/03 06:23:11;;;;;;;40.35;5.38;;;9.30;85.90;;;;;;5106301;27;20227;-77
2022/01/03 06:25:39;;;;;;;40.20;5.13;;;9.30;86.00;;;;;;5104652;27;20679;-78
2022/01/03 06:28:07;;;;;;;40.17;4.57;;;9.30;86.10;;;;;;5103802;28;20049;-78
2022/01/03 06:30:36;;;;;;;42.28;5.32;;;9.30;86.10;;;;;;5103397;27;20053;-78
2022/01/03 06:33:04;;;;;;;42.63;4.57;;;9.20;86.00;;;;;;5099348;28;20049;-78
2022/01/03 06:35:32;;;;;;;39.80;5.45;;;9.20;86.20;;;;;;5102833;27;20052;-77
2022/01/03 06:38:00;;;;;;;39.83;4.70;;;9.30;85.90;;;;;;5113339;27;20025;-77
2022/01/03 06:40:26;;;;;;;34.90;3.97;;;9.30;85.80;;;;;;5094705;28;20029;-78
2022/01/03 06:42:54;;;;;;;31.92;4.60;;;9.20;86.00;;;;;;5099383;27;20033;-77
2022/01/03 06:45:21;;;;;;;36.88;5.28;;;9.20;86.00;;;;;;5107561;28;20037;-77
2022/01/03 06:47:49;;;;;;;38.22;5.10;;;9.20;86.20;;;;;;5083011;28;20060;-78
2022/01/03 06:50:18;;;;;;;30.98;4.30;;;9.10;86.30;;;;;;5104767;27;20037;-79
2022/01/03 06:52:44;;;;;;;37.83;4.68;;;9.20;86.20;;;;;;5097517;27;20115;-79
2022/01/03 06:55:11;;;;;;;33.45;3.90;;;9.20;86.40;;;;;;5103608;27;20048;-79
2022/01/03 06:57:41;;;;;;;35.42;3.92;;;9.20;86.30;;;;;;5107409;27;20028;-79
2022/01/03 07:00:14;;;;;;;28.30;4.60;;;9.20;86.10;;;;;;5097496;28;20126;-78
2022/01/03 07:02:42;;;;;;;31.42;5.00;;;9.20;86.10;;;;;;5103476;27;20052;-78
2022/01/03 07:05:11;;;;;;;39.95;5.45;;;9.20;86.10;;;;;;5102640;28;20044;-78
2022/01/03 07:07:43;;;;;;;30.55;4.38;;;9.30;85.90;;;;;;5101093;27;20037;-79
2022/01/03 07:10:11;;;;;;;32.28;4.45;;;9.20;86.10;;;;;;5111113;27;20079;-78
2022/01/03 07:12:51;;;;;;;35.40;3.90;;;9.20;85.80;;;;;;5107893;27;20033;-79
2022/01/03 07:20:53;;;;;;;35.97;4.35;;;9.20;85.90;;;;;;5111823;27;20040;-78
2022/01/03 07:23:21;;;;;;;29.23;3.97;;;9.10;86.10;;;;;;5122191;27;20115;-78
2022/01/03 07:25:54;;;;;;;29.92;4.22;;;9.20;85.50;;;;;;5119707;27;20135;-79
2022/01/03 07:28:22;;;;;;;33.20;3.92;;;9.20;85.50;;;;;;5121172;27;20020;-79
2022/01/03 07:30:52;;;;;;;26.90;4.53;;;9.20;85.30;;;;;;5101834;27;20049;-78
2022/01/03 07:33:18;;;;;;;35.90;3.95;;;9.20;85.30;;;;;;5133894;27;20047;-79
2022/01/03 07:35:45;;;;;;;31.73;3.95;;;9.20;85.40;;;;;;5098196;27;20033;-79
2022/01/03 07:38:12;;;;;;;31.83;3.78;;;9.20;85.70;;;;;;5122606;27;20048;-78
2022/01/03 07:40:40;;;;;;;33.88;5.20;;;9.10;85.90;;;;;;5121089;27;20045;-79
2022/01/03 07:43:07;;;;;;;23.58;4.07;;;9.10;85.30;;;;;;5120188;27;20051;-77
2022/01/03 07:45:41;;;;;;;31.02;4.05;;;9.20;85.50;;;;;;5121719;27;20098;-79
2022/01/03 07:48:17;;;;;;;30.33;4.45;;;9.20;85.70;;;;;;5100760;28;20025;-80
2022/01/03 07:50:46;;;;;;;29.85;4.18;;;9.20;85.30;;;;;;5121572;27;20048;-80
2022/01/03 07:53:13;;;;;;;36.20;5.40;;;9.30;85.20;;;;;;5119450;27;20060;-80
2022/01/03 07:55:45;;;;;;;26.23;3.38;;;9.30;85.20;;;;;;5121138;27;20028;-80
2022/01/03 07:58:16;;;;;;;32.22;3.80;;;9.30;85.20;;;;;;5099324;27;20047;-80
2022/01/03 08:00:47;;;;;;;39.25;5.43;;;9.30;84.90;;;;;;5122418;27;20032;-80
2022/01/03 08:03:18;;;;;;;31.55;4.15;;;9.30;85.00;;;;;;5117920;27;20120;-81
2022/01/03 08:06:05;;;;;;;24.85;3.95;;;9.40;85.00;;;;;;5120527;28;20054;-80
2022/01/03 08:08:32;;;;;;;30.85;4.25;;;9.30;85.30;;;;;;5119633;27;20029;-81
2022/01/03 08:10:58;;;;;;;38.35;5.13;;;9.30;85.20;;;;;;5099624;28;20060;-80
2022/01/03 08:13:26;;;;;;;30.58;4.15;;;9.30;85.20;;;;;;5102063;28;20044;-80
2022/01/03 08:15:59;;;;;;;38.97;4.10;;;9.30;85.50;;;;;;5118281;28;20096;-80
2022/01/03 08:18:26;;;;;;;40.38;4.93;;;9.30;85.60;;;;;;5133808;27;20042;-81
2022/01/03 08:20:59;;;;;;;28.38;4.13;;;9.30;85.50;;;;;;5133356;27;20039;-81
2022/01/03 08:23:32;;;;;;;38.15;4.47;;;9.20;85.60;;;;;;5121028;27;20032;-80
2022/01/03 08:26:00;;;;;;;37.90;4.72;;;9.30;85.40;;;;;;5117834;27;20040;-79
2022/01/03 08:28:43;;;;;;;29.13;4.10;;;9.30;85.60;;;;;;5101842;28;20033;-78
2022/01/03 08:31:09;;;;;;;34.90;4.22;;;9.30;85.30;;;;;;5119691;27;20271;-79
2022/01/03 08:33:43;;;;;;;24.58;4.25;;;9.40;85.30;;;;;;5100657;27;20052;-80
2022/01/03 08:36:13;;;;;;;33.65;4.25;;;9.40;85.60;;;;;;5117379;27;20040;-79
2022/01/03 08:38:40;;;;;;;28.13;4.00;;;9.40;85.10;;;;;;5100605;27;20032;-80
2022/01/03 08:41:16;;;;;;;33.83;4.47;;;9.40;85.20;;;;;;5120743;27;20055;-79
2022/01/03 08:43:43;;;;;;;31.08;4.25;;;9.40;85.00;;;;;;5121130;27;20100;-80
2022/01/03 08:46:13;;;;;;;23.77;3.17;;;9.40;84.90;;;;;;5121951;27;20045;-79
2022/01/03 08:48:40;;;;;;;29.63;4.20;;;9.40;85.10;;;;;;5119542;28;20060;-80
2022/01/03 08:51:07;;;;;;;28.98;4.43;;;9.40;84.90;;;;;;5092261;28;20071;-81
2022/01/03 08:53:36;;;;;;;33.33;4.20;;;9.40;84.90;;;;;;5095718;27;20120;-79
2022/01/03 08:56:23;;;;;;;30.52;4.13;;;9.50;84.50;;;;;;5114794;27;20036;-81
2022/01/03 08:58:50;;;;;;;27.17;4.25;;;9.50;85.30;;;;;;5116154;27;20096;-80
2022/01/03 09:01:20;;;;;;;47.17;5.55;;;9.50;84.70;;;;;;5101397;27;20032;-80
2022/01/03 09:03:50;;;;;;;36.85;4.75;;;9.60;84.40;;;;;;5097738;27;20060;-79
2022/01/03 09:06:18;;;;;;;29.27;4.03;;;9.60;83.80;;;;;;5133386;27;20044;-80
2022/01/03 09:08:46;;;;;;;32.38;4.43;;;9.60;84.00;;;;;;5097445;28;20053;-80
2022/01/03 09:11:16;;;;;;;28.75;4.32;;;9.60;84.20;;;;;;5119385;27;20047;-81
2022/01/03 09:13:43;;;;;;;34.97;4.85;;;9.60;84.30;;;;;;5102193;27;20060;-81
2022/01/03 09:16:11;;;;;;;30.83;4.38;;;9.70;84.10;;;;;;5100847;27;20056;-80
2022/01/03 09:18:46;;;;;;;25.60;4.00;;;9.70;83.90;;;;;;5119692;27;20077;-80
2022/01/03 09:21:13;;;;;;;24.75;4.10;;;9.70;84.40;;;;;;5119431;27;20095;-79
2022/01/03 09:23:45;;;;;;;40.58;5.32;;;9.80;83.90;;;;;;5120059;27;20032;-80
2022/01/03 09:28:57;;;;;;;37.95;3.75;;;9.80;83.50;;;;;;5116914;27;20014;-81
2022/01/03 09:31:29;;;;;;;30.38;4.45;;;9.80;83.80;;;;;;5101395;28;20025;-80
2022/01/03 09:33:58;;;;;;;40.47;4.75;;;9.80;83.30;;;;;;5120413;27;20059;-79
2022/01/03 09:36:27;;;;;;;28.33;3.72;;;9.70;83.70;;;;;;5116931;27;20047;-81
2022/01/03 09:38:56;;;;;;;31.80;4.38;;;9.70;83.50;;;;;;5116567;28;20048;-80
2022/01/03 09:41:26;;;;;;;30.05;4.55;;;9.60;83.70;;;;;;5096335;28;20044;-81
2022/01/03 09:43:56;;;;;;;34.17;3.92;;;9.60;83.90;;;;;;5117395;27;20039;-80
2022/01/03 09:46:38;;;;;;;25.77;3.85;;;9.60;84.50;;;;;;5101456;27;21022;-81
2022/01/03 09:49:10;;;;;;;36.95;3.90;;;9.60;84.80;;;;;;5117170;27;20029;-81
2022/01/03 09:51:42;;;;;;;34.75;4.18;;;9.60;84.60;;;;;;5117199;27;20060;-80
2022/01/03 09:54:14;;;;;;;24.50;4.20;;;9.60;84.50;;;;;;5112529;27;20058;-80
2022/01/03 09:56:42;;;;;;;33.63;4.60;;;9.60;84.20;;;;;;5124026;27;20070;-81
2022/01/03 09:59:10;;;;;;;25.33;4.18;;;9.70;84.80;;;;;;5120152;27;20028;-82
2022/01/03 10:01:45;;;;;;;27.25;3.60;;;9.80;84.00;;;;;;5119877;27;20024;-81
2022/01/03 10:04:15;;;;;;;34.10;4.85;;;10.00;84.30;;;;;;5121273;27;20104;-81
2022/01/03 10:06:49;;;;;;;30.20;4.28;;;10.20;82.60;;;;;;5119366;27;20115;-82
2022/01/03 10:09:18;;;;;;;31.13;4.43;;;10.30;82.00;;;;;;5122472;27;20055;-80
2022/01/03 10:11:45;;;;;;;31.27;4.20;;;10.20;82.30;;;;;;5121982;27;20056;-82
2022/01/03 10:14:12;;;;;;;31.00;3.65;;;10.20;82.80;;;;;;5101978;28;20040;-79
2022/01/03 10:16:50;;;;;;;30.65;5.00;;;10.20;82.20;;;;;;5100710;28;20045;-80
2022/01/03 10:19:24;;;;;;;28.42;3.45;;;10.20;82.20;;;;;;5121876;27;20450;-80
2022/01/03 10:21:51;;;;;;;37.08;4.63;;;10.20;81.70;;;;;;5122385;27;20060;-80
2022/01/03 10:24:32;;;;;;;34.00;5.13;;;10.10;82.30;;;;;;5121636;27;20021;-81
2022/01/03 10:27:23;;;;;;;26.92;3.83;;;10.00;82.80;;;;;;5121869;27;20060;-81
2022/01/03 10:29:59;;;;;;;32.33;4.32;;;10.00;82.80;;;;;;5120055;27;20054;-81
2022/01/03 10:32:28;;;;;;;30.23;4.13;;;9.90;83.10;;;;;;5100757;28;20040;-81
2022/01/03 10:34:57;;;;;;;27.42;4.10;;;9.90;83.10;;;;;;5123804;27;20469;-81
2022/01/03 10:37:36;;;;;;;33.72;4.60;;;9.90;83.40;;;;;;5121154;27;20040;-81
2022/01/03 10:40:36;;;;;;;28.52;3.95;;;9.90;83.00;;;;;;5121722;27;20032;-80
2022/01/03 10:43:18;;;;;;;31.48;4.10;;;9.90;83.30;;;;;;5109029;27;20045;-80
2022/01/03 10:45:47;;;;;;;29.05;4.07;;;9.90;83.70;;;;;;5122586;27;20107;-79
2022/01/03 10:48:32;;;;;;;37.92;4.82;;;10.10;83.20;;;;;;5102782;27;20065;-79
2022/01/03 10:51:01;;;;;;;43.53;4.93;;;10.30;82.20;;;;;;5121610;27;20041;-80
2022/01/03 10:53:39;;;;;;;35.53;4.10;;;10.40;83.30;;;;;;5120067;27;20106;-80
2022/01/03 10:56:30;;;;;;;25.25;4.10;;;10.40;82.70;;;;;;5121776;27;20033;-80
2022/01/03 10:59:15;;;;;;;34.08;4.70;;;10.50;82.20;;;;;;5103033;27;20045;-80
2022/01/03 11:01:47;;;;;;;33.05;4.97;;;10.50;81.90;;;;;;5102277;27;20044;-80
2022/01/03 11:04:28;;;;;;;29.85;4.40;;;10.60;81.50;;;;;;5123114;27;20312;-79
2022/01/03 11:13:18;;;;;;;26.70;4.53;;;10.80;79.70;;;;;;5120076;27;20552;-81
2022/01/03 11:16:02;;;;;;;36.00;5.05;;;10.90;79.70;;;;;;5121849;27;20032;-81
2022/01/03 11:18:34;;;;;;;30.17;4.28;;;10.90;80.30;;;;;;5120854;27;20064;-82
2022/01/03 11:21:14;;;;;;;33.92;5.50;;;10.80;79.20;;;;;;5120185;27;20468;-81
2022/01/03 11:23:46;;;;;;;25.52;3.80;;;10.70;80.10;;;;;;5093619;27;20073;-81
2022/01/03 11:26:15;;;;;;;33.10;4.78;;;10.60;80.70;;;;;;5118073;28;20039;-81
2022/01/03 11:28:43;;;;;;;29.65;4.75;;;10.60;80.10;;;;;;5119329;27;20133;-81
2022/01/03 11:31:15;;;;;;;30.30;4.18;;;10.50;80.50;;;;;;5118387;27;20044;-80
2022/01/03 11:33:43;;;;;;;33.05;4.32;;;10.60;80.30;;;;;;5118139;27;20024;-81
2022/01/03 11:36:30;;;;;;;30.25;5.10;;;10.70;80.70;;;;;;5119186;27;20144;-80
2022/01/03 11:39:09;;;;;;;27.08;4.50;;;10.80;79.30;;;;;;5101169;28;20045;-80
2022/01/03 11:41:42;;;;;;;26.67;4.45;;;10.80;79.50;;;;;;5116283;27;20032;-81
2022/01/03 11:44:15;;;;;;;39.20;3.88;;;10.80;79.30;;;;;;5118205;27;20032;-82
2022/01/03 11:46:48;;;;;;;24.73;3.60;;;10.90;79.20;;;;;;5120955;27;20029;-81
2022/01/03 11:49:19;;;;;;;31.83;4.40;;;10.90;79.10;;;;;;5116932;28;20071;-82
2022/01/03 11:51:49;;;;;;;33.10;4.07;;;10.80;79.40;;;;;;5101309;27;20036;-80
2022/01/03 11:54:19;;;;;;;33.47;4.45;;;10.70;78.10;;;;;;5130371;27;20059;-82
2022/01/03 11:56:51;;;;;;;27.50;4.47;;;10.70;79.40;;;;;;5107886;28;20044;-79
2022/01/03 12:03:36;;;;;;;;;;;10.70;79.60;;;;;;5109175;28;20842;-80
2022/01/03 12:05:14;;;;;;;26.08;3.65;;;10.60;80.20;;;;;;5110590;27;20052;-79
2022/01/03 12:07:54;;;;;;;34.05;5.13;;;10.50;80.90;;;;;;5130499;27;20076;-80
2022/01/03 12:10:24;;;;;;;33.55;5.38;;;10.30;83.80;;;;;;5116943;27;20037;-82
2022/01/03 12:13:00;;;;;;;42.80;4.40;;;10.10;84.90;;;;;;5112998;28;20131;-82
2022/01/03 12:15:39;;;;;;;42.15;5.25;;;10.00;86.20;;;;;;5101794;27;20120;-82
2022/01/03 12:18:31;;;;;;;33.95;4.75;;;9.90;88.00;;;;;;5120833;27;20040;-82
2022/01/03 12:20:58;;;;;;;40.53;5.15;;;9.70;89.00;;;;;;5115968;28;20060;-81
2022/01/03 12:23:45;;;;;;;48.97;5.90;;;9.70;89.50;;;;;;5091389;28;20052;-83
2022/01/03 12:26:23;;;;;;;46.63;5.15;;;9.60;89.80;;;;;;5101205;28;20032;-82
2022/01/03 12:29:09;;;;;;;35.10;4.78;;;9.60;90.50;;;;;;5117689;28;20101;-81
2022/01/03 12:32:08;;;;;;;46.95;5.35;;;9.50;90.60;;;;;;5115707;28;20052;-81
2022/01/03 12:34:38;;;;;;;36.40;4.43;;;9.50;91.10;;;;;;5113523;28;20036;-81
2022/01/03 12:37:22;;;;;;;44.25;5.30;;;9.60;91.20;;;;;;5114583;27;20040;-81
2022/01/03 12:40:09;;;;;;;30.02;4.50;;;9.70;92.10;;;;;;5114320;27;20059;-82
2022/01/03 12:45:30;;;;;;;24.70;4.32;;;9.70;90.30;;;;;;5118809;27;20023;-81
2022/01/03 12:48:15;;;;;;;33.83;3.92;;;9.70;90.30;;;;;;5100441;28;20143;-81
2022/01/03 12:50:52;;;;;;;30.98;4.00;;;9.50;90.20;;;;;;5102994;27;20102;-82
2022/01/03 12:53:28;;;;;;;37.63;4.47;;;9.40;89.90;;;;;;5120802;27;20056;-81
2022/01/03 12:55:56;;;;;;;24.95;4.28;;;9.30;89.80;;;;;;5118783;27;20059;-82
2022/01/03 12:58:28;;;;;;;27.13;3.75;;;9.20;90.20;;;;;;5099810;28;20079;-82
2022/01/03 13:01:14;;;;;;;29.58;3.42;;;9.10;90.50;;;;;;5117654;27;20059;-81
2022/01/03 13:03:52;;;;;;;23.85;3.55;;;9.00;90.90;;;;;;5117207;27;20102;-81
2022/01/03 13:06:24;;;;;;;31.08;5.10;;;9.00;91.50;;;;;;5118233;27;21225;-81
2022/01/03 13:09:06;;;;;;;32.20;4.60;;;8.90;90.90;;;;;;5120499;27;20071;-81
2022/01/03 13:11:45;;;;;;;25.33;4.50;;;8.90;90.80;;;;;;5102872;27;20043;-82
2022/01/03 13:14:28;;;;;;;34.70;4.80;;;8.90;90.00;;;;;;5122684;27;20044;-82
2022/01/03 13:16:58;;;;;;;25.63;3.38;;;8.90;90.60;;;;;;5097677;28;20040;-81
2022/01/03 13:19:59;;;;;;;30.20;3.85;;;8.80;90.80;;;;;;5111690;27;20044;-83
2022/01/03 13:22:32;;;;;;;29.15;3.53;;;8.80;90.30;;;;;;5117108;27;20024;-84
2022/01/03 13:25:01;;;;;;;26.73;3.20;;;8.80;90.80;;;;;;5115541;27;20044;-82
2022/01/03 13:27:28;;;;;;;24.17;3.10;;;8.80;91.20;;;;;;5118388;27;20063;-82
2022/01/03 13:29:58;;;;;;;35.70;4.07;;;8.80;90.70;;;;;;5096122;28;20056;-84